createdAt,value
2023-06-09T00:00:38.891Z,23.15
2023-06-09T00:03:44.864Z,23.26
2023-06-09T00:06:47.349Z,23.17
2023-06-09T00:09:44.200Z,23.12
2023-06-09T00:12:44.775Z,22.77
2023-06-09T00:15:48.452Z,22.78
2023-06-09T00:18:54.600Z,23.20
2023-06-09T00:21:58.682Z,23.10
2023-06-09T00:24:59.707Z,23.01
2023-06-09T00:28:00.694Z,22.95
2023-06-09T00:31:02.927Z,22.86
2023-06-09T00:34:03.888Z,23.17
2023-06-09T00:37:04.717Z,22.77
2023-06-09T00:40:06.045Z,22.71
2023-06-09T00:43:07.732Z,22.84
2023-06-09T00:46:08.735Z,22.55
2023-06-09T00:49:11.935Z,22.75
2023-06-09T00:52:12.815Z,22.63
2023-06-09T00:55:16.447Z,22.62
2023-06-09T00:58:18.705Z,23.08
2023-06-09T01:01:20.077Z,23.07
2023-06-09T01:04:22.805Z,22.75
2023-06-09T01:07:28.698Z,23.12
2023-06-09T01:10:32.693Z,22.75
2023-06-09T01:13:42.720Z,22.98
2023-06-09T01:16:54.016Z,22.81
2023-06-09T01:19:58.747Z,23.07
2023-06-09T01:23:04.792Z,22.86
2023-06-09T01:26:05.684Z,22.67
2023-06-09T01:29:10.821Z,23.17
2023-06-09T01:32:21.071Z,22.92
2023-06-09T01:35:21.782Z,23.28
2023-06-09T01:38:22.986Z,23.32
2023-06-09T01:41:23.697Z,22.94
2023-06-09T01:44:24.893Z,23.44
2023-06-09T01:47:27.855Z,22.79
2023-06-09T01:50:33.744Z,23.31
2023-06-09T01:53:46.694Z,23.12
2023-06-09T01:56:52.698Z,22.96
2023-06-09T02:00:01.836Z,22.99
2023-06-09T02:03:11.927Z,23.07
2023-06-09T02:06:13.855Z,23.08
2023-06-09T02:09:14.749Z,23.15
2023-06-09T02:12:15.786Z,23.24
2023-06-09T02:15:17.688Z,23.03
2023-06-09T02:18:19.767Z,23.48
2023-06-09T02:21:13.703Z,23.29
2023-06-09T02:24:14.784Z,23.50
2023-06-09T02:27:15.711Z,23.60
2023-06-09T02:30:16.699Z,23.26
2023-06-09T02:33:18.791Z,23.18
2023-06-09T02:36:45.977Z,23.40
2023-06-09T02:39:50.722Z,23.03
2023-06-09T02:42:45.673Z,23.40
2023-06-09T02:45:46.733Z,22.97
2023-06-09T02:48:47.732Z,23.28
2023-06-09T02:51:49.266Z,23.06
2023-06-09T02:54:52.018Z,23.09
2023-06-09T02:57:52.825Z,22.96
2023-06-09T03:00:57.815Z,23.11
2023-06-09T03:03:58.766Z,23.59
2023-06-09T03:07:01.827Z,23.42
2023-06-09T03:10:02.726Z,23.20
2023-06-09T03:13:32.925Z,23.25
2023-06-09T03:16:35.845Z,23.85
2023-06-09T03:19:37.012Z,23.16
2023-06-09T03:22:37.748Z,22.93
2023-06-09T03:25:38.757Z,23.30
2023-06-09T03:28:43.980Z,23.44
2023-06-09T03:31:44.787Z,23.64
2023-06-09T03:34:49.230Z,23.60
2023-06-09T03:37:43.860Z,23.74
2023-06-09T03:40:37.685Z,24.38
2023-06-09T03:43:41.794Z,24.72
2023-06-09T03:47:10.798Z,24.70
2023-06-09T03:50:11.758Z,24.43
2023-06-09T03:53:12.693Z,24.50
2023-06-09T03:56:15.776Z,24.45
2023-06-09T03:59:16.705Z,24.92
2023-06-09T04:02:21.220Z,24.50
2023-06-09T04:05:33.447Z,24.02
2023-06-09T04:08:41.736Z,24.10
2023-06-09T04:11:42.733Z,24.16
2023-06-09T04:14:44.754Z,24.29
2023-06-09T04:17:45.740Z,23.98
2023-06-09T04:20:51.773Z,24.52
2023-06-09T04:23:53.746Z,24.56
2023-06-09T04:26:55.728Z,24.11
2023-06-09T04:29:57.643Z,24.53
2023-06-09T04:33:00.726Z,24.53
2023-06-09T04:36:02.661Z,24.24
2023-06-09T04:39:03.767Z,24.43
2023-06-09T04:42:04.649Z,24.13
2023-06-09T04:45:05.688Z,24.53
2023-06-09T04:48:07.695Z,24.20
2023-06-09T04:51:08.665Z,24.22
2023-06-09T04:54:14.704Z,24.36
2023-06-09T04:57:13.695Z,24.25
2023-06-09T05:00:21.872Z,24.24
2023-06-09T05:03:32.040Z,24.43
2023-06-09T05:06:32.682Z,24.42
2023-06-09T05:09:33.887Z,24.18
2023-06-09T05:12:34.748Z,23.95
2023-06-09T05:15:35.627Z,24.26
2023-06-09T05:18:38.808Z,24.12
2023-06-09T05:21:39.966Z,23.90
2023-06-09T05:25:05.994Z,23.99
2023-06-09T05:28:07.017Z,24.30
2023-06-09T05:31:07.780Z,24.17
2023-06-09T05:34:08.681Z,24.26
2023-06-09T05:37:11.693Z,23.86
2023-06-09T05:40:12.669Z,23.77
2023-06-09T05:43:13.649Z,24.12
2023-06-09T05:46:14.917Z,24.16
2023-06-09T05:49:15.713Z,24.63
2023-06-09T05:52:16.758Z,23.95
2023-06-09T05:55:17.763Z,24.88
2023-06-09T05:58:19.703Z,24.46
2023-06-09T06:01:49.711Z,24.68
2023-06-09T06:04:50.783Z,24.00
2023-06-09T06:07:51.671Z,24.51
2023-06-09T06:10:45.725Z,24.15
2023-06-09T06:13:46.656Z,23.75
2023-06-09T06:16:47.670Z,23.79
2023-06-09T06:19:48.660Z,23.84
2023-06-09T06:22:50.703Z,23.78
2023-06-09T06:25:51.848Z,24.33
2023-06-09T06:28:53.686Z,24.40
2023-06-09T06:31:56.737Z,23.42
2023-06-09T06:34:57.843Z,23.21
2023-06-09T06:37:58.717Z,23.90
2023-06-09T06:40:52.893Z,23.97
2023-06-09T06:43:46.742Z,23.94
2023-06-09T06:46:47.728Z,23.85
2023-06-09T06:49:48.704Z,23.60
2023-06-09T06:52:49.827Z,23.05
2023-06-09T06:55:50.677Z,23.39
2023-06-09T06:58:51.637Z,23.50
2023-06-09T07:01:53.695Z,24.18
2023-06-09T07:04:55.040Z,23.93
2023-06-09T07:07:55.656Z,23.66
2023-06-09T07:10:56.820Z,22.90
2023-06-09T07:13:59.620Z,22.78
2023-06-09T07:17:00.661Z,22.27
2023-06-09T07:20:01.707Z,22.51
2023-06-09T07:22:58.682Z,22.34
2023-06-09T07:26:01.690Z,22.53
2023-06-09T07:29:02.709Z,22.04
2023-06-09T07:32:06.714Z,22.26
2023-06-09T07:35:07.678Z,22.18
2023-06-09T07:38:09.702Z,22.00
2023-06-09T07:41:10.584Z,22.42
2023-06-09T07:44:11.608Z,21.72
2023-06-09T07:47:12.962Z,21.74
2023-06-09T07:50:14.657Z,22.17
2023-06-09T07:53:15.587Z,21.65
2023-06-09T07:56:16.709Z,21.90
2023-06-09T07:59:17.641Z,22.02
2023-06-09T08:02:20.589Z,22.39
2023-06-09T08:05:21.696Z,22.27
2023-06-09T08:08:22.681Z,22.15
2023-06-09T08:11:23.591Z,22.10
2023-06-09T08:14:25.703Z,22.46
2023-06-09T08:17:26.639Z,22.19
2023-06-09T08:20:27.637Z,22.18
2023-06-09T08:23:31.703Z,22.13
2023-06-09T08:26:32.693Z,22.59
2023-06-09T08:29:33.795Z,22.62
2023-06-09T08:32:34.980Z,22.49
2023-06-09T08:35:35.720Z,22.63
2023-06-09T08:38:36.756Z,22.63
2023-06-09T08:41:40.639Z,22.60
2023-06-09T08:44:42.651Z,22.33
2023-06-09T08:47:43.836Z,22.62
2023-06-09T08:50:48.681Z,22.63
2023-06-09T08:53:49.672Z,22.59
2023-06-09T08:56:50.633Z,22.68
2023-06-09T08:59:52.648Z,22.41
2023-06-09T09:02:53.636Z,22.72
2023-06-09T09:05:54.604Z,23.02
2023-06-09T09:08:55.586Z,22.59
2023-06-09T09:11:58.613Z,22.83
2023-06-09T09:14:59.624Z,22.63
2023-06-09T09:18:00.694Z,22.95
2023-06-09T09:21:02.753Z,22.32
2023-06-09T09:24:13.835Z,22.62
2023-06-09T09:27:28.715Z,22.23
2023-06-09T09:30:29.636Z,22.31
2023-06-09T09:33:37.523Z,22.41
2023-06-09T09:36:38.680Z,22.25
2023-06-09T09:39:39.619Z,22.88
2023-06-09T09:42:41.630Z,22.63
2023-06-09T09:45:46.237Z,22.65
2023-06-09T09:48:47.617Z,22.70
2023-06-09T09:51:48.606Z,22.42
2023-06-09T09:54:50.566Z,22.44
2023-06-09T09:57:52.579Z,22.20
2023-06-09T10:00:55.676Z,22.36
2023-06-09T10:03:57.982Z,22.49
2023-06-09T10:06:58.707Z,22.59
2023-06-09T10:10:02.647Z,22.86
2023-06-09T10:13:07.532Z,22.27
2023-06-09T10:16:35.422Z,22.21
2023-06-09T10:19:37.619Z,22.27
2023-06-09T10:22:39.914Z,22.20
2023-06-09T10:25:41.612Z,22.34
2023-06-09T10:28:42.612Z,22.58
2023-06-09T10:31:54.809Z,22.37
2023-06-09T10:35:29.217Z,21.95
2023-06-09T10:38:32.639Z,22.03
2023-06-09T10:41:34.632Z,22.08
2023-06-09T10:44:37.572Z,21.74
2023-06-09T10:48:01.942Z,22.01
2023-06-09T10:50:48.651Z,21.35
2023-06-09T10:53:49.671Z,21.74
2023-06-09T10:56:55.655Z,21.34
2023-06-09T11:00:04.751Z,21.70
2023-06-09T11:03:06.632Z,21.15
2023-06-09T11:06:13.606Z,20.90
2023-06-09T11:09:16.619Z,20.84
2023-06-09T11:12:30.407Z,21.65
2023-06-09T11:15:34.446Z,21.31
2023-06-09T11:18:35.802Z,21.24
2023-06-09T11:21:37.619Z,21.00
2023-06-09T11:24:40.596Z,20.05
2023-06-09T11:27:41.576Z,20.98
2023-06-09T11:30:43.578Z,20.75
2023-06-09T11:33:56.633Z,20.57
2023-06-09T11:37:00.617Z,19.92
2023-06-09T11:40:01.597Z,20.30
2023-06-09T11:43:02.626Z,20.28
2023-06-09T11:46:03.643Z,20.10
2023-06-09T11:49:10.656Z,20.14
2023-06-09T11:52:14.614Z,20.21
2023-06-09T11:55:16.580Z,19.80
2023-06-09T11:58:11.568Z,19.40
2023-06-09T12:01:12.572Z,19.55
2023-06-09T12:04:06.743Z,20.37
2023-06-09T12:07:07.656Z,20.51
2023-06-09T12:10:08.810Z,20.14
2023-06-09T12:13:13.631Z,19.47
2023-06-09T12:16:14.559Z,19.19
2023-06-09T12:19:15.634Z,19.74
2023-06-09T12:22:34.727Z,19.89
2023-06-09T12:25:32.606Z,20.35
2023-06-09T12:28:35.607Z,20.24
2023-06-09T12:31:36.637Z,20.35
2023-06-09T12:34:38.573Z,21.11
2023-06-09T12:37:41.565Z,21.14
2023-06-09T12:41:07.563Z,20.26
2023-06-09T12:44:11.552Z,20.54
2023-06-09T12:47:12.637Z,20.63
2023-06-09T12:50:13.592Z,20.20
2023-06-09T12:53:14.580Z,20.45
2023-06-09T12:56:15.629Z,20.78
2023-06-09T12:59:16.557Z,20.84
2023-06-09T13:02:17.582Z,21.14
2023-06-09T13:05:18.594Z,21.19
2023-06-09T13:08:22.596Z,20.84
2023-06-09T13:11:24.594Z,21.08
2023-06-09T13:14:25.577Z,21.53
2023-06-09T13:17:51.643Z,21.46
2023-06-09T13:20:52.618Z,20.46
2023-06-09T13:23:53.604Z,20.46
2023-06-09T13:26:55.566Z,19.33
2023-06-09T13:29:56.542Z,20.61
2023-06-09T13:32:57.583Z,20.18
2023-06-09T13:36:05.035Z,19.53
2023-06-09T13:39:05.559Z,19.71
2023-06-09T13:42:06.579Z,19.35
2023-06-09T13:45:07.784Z,18.20
2023-06-09T13:48:08.619Z,18.50
2023-06-09T13:51:09.576Z,18.01
2023-06-09T13:54:10.523Z,18.58
2023-06-09T13:57:11.688Z,18.41
2023-06-09T14:00:12.599Z,18.52
2023-06-09T14:03:13.699Z,19.32
2023-06-09T14:06:14.540Z,18.83
2023-06-09T14:09:15.568Z,18.38
2023-06-09T14:12:16.563Z,18.78
2023-06-09T14:18:29.603Z,18.08
2023-06-09T14:21:30.645Z,17.93
2023-06-09T14:24:32.550Z,17.36
2023-06-09T14:27:33.611Z,16.75
2023-06-09T14:30:34.568Z,17.26
2023-06-09T14:33:35.572Z,17.15
2023-06-09T14:36:36.551Z,18.07
2023-06-09T14:39:37.629Z,16.98
2023-06-09T14:42:38.738Z,16.88
2023-06-09T14:45:39.610Z,17.86
2023-06-09T14:48:40.581Z,18.82
2023-06-09T14:51:34.569Z,18.12
2023-06-09T14:54:35.553Z,17.46
2023-06-09T14:57:54.798Z,17.22
2023-06-09T15:00:41.547Z,17.26
2023-06-09T15:03:42.594Z,17.28
2023-06-09T15:06:43.741Z,16.57
2023-06-09T15:09:44.543Z,17.40
2023-06-09T15:12:50.894Z,16.20
2023-06-09T15:15:52.639Z,16.51
2023-06-09T15:18:53.548Z,16.38
2023-06-09T15:22:04.325Z,16.79
2023-06-09T15:25:21.593Z,16.60
2023-06-09T15:28:28.619Z,16.79
2023-06-09T15:31:29.595Z,16.37
2023-06-09T15:34:30.572Z,15.94
2023-06-09T15:37:35.575Z,16.50
2023-06-09T15:40:37.508Z,17.09
2023-06-09T15:43:44.616Z,15.46
2023-06-09T15:46:38.812Z,15.36
2023-06-09T15:49:33.531Z,16.78
2023-06-09T15:52:35.528Z,17.00
2023-06-09T15:55:37.590Z,15.45
2023-06-09T15:58:38.539Z,15.96
2023-06-09T16:01:39.792Z,15.71
2023-06-09T16:04:42.520Z,16.46
2023-06-09T16:07:43.542Z,15.80
2023-06-09T16:10:44.513Z,15.22
2023-06-09T16:13:45.643Z,14.96
2023-06-09T16:16:46.978Z,14.57
2023-06-09T16:19:49.627Z,13.75
2023-06-09T16:22:50.524Z,14.21
2023-06-09T16:25:51.549Z,13.76
2023-06-09T16:28:52.611Z,14.35
2023-06-09T16:31:53.548Z,14.02
2023-06-09T16:34:54.576Z,14.57
2023-06-09T16:37:56.521Z,14.59
2023-06-09T16:40:58.577Z,13.86
2023-06-09T16:43:59.560Z,14.99
2023-06-09T16:47:00.589Z,15.79
2023-06-09T16:50:02.734Z,15.91
2023-06-09T16:53:04.642Z,15.74
2023-06-09T16:56:05.556Z,16.09
2023-06-09T16:59:06.536Z,16.62
2023-06-09T17:02:07.688Z,16.98
2023-06-09T17:05:08.833Z,17.24
2023-06-09T17:08:09.593Z,17.33
2023-06-09T17:11:10.554Z,17.10
2023-06-09T17:14:11.560Z,16.88
2023-06-09T17:17:12.561Z,16.50
2023-06-09T17:20:13.596Z,16.38
2023-06-09T17:23:15.740Z,16.55
2023-06-09T17:26:20.948Z,16.46
2023-06-09T17:29:24.543Z,16.68
2023-06-09T17:32:51.572Z,16.11
2023-06-09T17:35:52.794Z,16.18
2023-06-09T17:38:53.598Z,15.69
2023-06-09T17:41:54.553Z,16.02
2023-06-09T17:44:55.557Z,16.79
2023-06-09T17:47:56.626Z,16.75
2023-06-09T17:51:17.776Z,15.90
2023-06-09T17:54:04.606Z,16.12
2023-06-09T17:57:07.285Z,17.38
2023-06-09T18:00:08.560Z,16.52
2023-06-09T18:03:09.565Z,16.71
2023-06-09T18:06:12.698Z,17.18
2023-06-09T18:09:13.549Z,17.42
2023-06-09T18:12:19.609Z,17.27
2023-06-09T18:15:20.532Z,16.56
2023-06-09T18:18:21.539Z,16.10
2023-06-09T18:21:15.573Z,16.79
2023-06-09T18:24:16.799Z,17.87
2023-06-09T18:27:18.660Z,17.09
2023-06-09T18:30:19.567Z,17.34
2023-06-09T18:33:20.528Z,16.88
2023-06-09T18:36:21.536Z,16.85
2023-06-09T18:39:23.561Z,17.47
2023-06-09T18:42:24.527Z,17.43
2023-06-09T18:45:26.514Z,18.16
2023-06-09T18:49:01.268Z,18.00
2023-06-09T18:52:02.535Z,17.38
2023-06-09T18:55:03.558Z,18.21
2023-06-09T18:58:04.534Z,18.02
2023-06-09T19:01:05.527Z,18.17
2023-06-09T19:04:06.603Z,17.77
2023-06-09T19:07:07.515Z,17.71
2023-06-09T19:10:01.510Z,18.12
2023-06-09T19:13:02.512Z,18.48
2023-06-09T19:16:04.540Z,17.79
2023-06-09T19:19:05.691Z,18.07
2023-06-09T19:22:06.511Z,17.88
2023-06-09T19:25:07.688Z,18.30
2023-06-09T19:28:08.573Z,18.95
2023-06-09T19:31:09.600Z,18.80
2023-06-09T19:34:10.548Z,18.76
2023-06-09T19:37:12.640Z,19.10
2023-06-09T19:40:13.553Z,19.34
2023-06-09T19:43:14.526Z,19.48
2023-06-09T19:46:15.773Z,19.64
2023-06-09T19:49:21.111Z,19.63
2023-06-09T19:52:24.838Z,18.71
2023-06-09T19:55:26.673Z,18.95
2023-06-09T19:58:27.473Z,18.49
2023-06-09T20:01:28.581Z,19.06
2023-06-09T20:04:29.647Z,18.73
2023-06-09T20:07:30.481Z,19.28
2023-06-09T20:10:31.495Z,19.03
2023-06-09T20:13:32.490Z,18.37
2023-06-09T20:16:36.759Z,19.14
2023-06-09T20:19:38.515Z,18.16
2023-06-09T20:22:39.519Z,18.09
2023-06-09T20:25:40.483Z,19.21
2023-06-09T20:28:41.541Z,19.89
2023-06-09T20:31:44.613Z,20.30
2023-06-09T20:34:45.546Z,20.40
2023-06-09T20:37:48.623Z,20.07
2023-06-09T20:40:49.640Z,20.19
2023-06-09T20:43:51.553Z,20.33
2023-06-09T20:46:52.528Z,20.76
2023-06-09T20:49:54.080Z,21.20
2023-06-09T20:52:54.894Z,20.71
2023-06-09T20:55:58.493Z,20.75
2023-06-09T20:59:00.485Z,20.53
2023-06-09T21:02:02.576Z,20.78
2023-06-09T21:08:28.585Z,21.32
2023-06-09T21:11:29.550Z,21.13
2023-06-09T21:14:23.478Z,21.31
2023-06-09T21:17:25.629Z,21.63
2023-06-09T21:20:27.564Z,21.04
2023-06-09T21:23:28.570Z,21.69
2023-06-09T21:26:47.708Z,21.95
2023-06-09T21:33:00.776Z,21.39
2023-06-09T21:36:01.633Z,21.51
2023-06-09T21:39:02.678Z,21.94
2023-06-09T21:42:03.608Z,21.64
2023-06-09T21:45:06.981Z,21.69
2023-06-09T21:48:07.657Z,21.99
2023-06-09T21:51:12.666Z,21.93
2023-06-09T21:54:18.334Z,21.73
2023-06-09T21:57:22.609Z,21.66
2023-06-09T22:00:23.563Z,21.94
2023-06-09T22:03:24.616Z,21.49
2023-06-09T22:06:27.023Z,21.62
2023-06-09T22:09:43.403Z,21.09
2023-06-09T22:17:00.657Z,21.54
2023-06-09T22:20:01.553Z,21.05
2023-06-09T22:23:02.511Z,21.39
2023-06-09T22:26:03.516Z,21.41
2023-06-09T22:29:04.506Z,21.28
2023-06-09T22:32:05.486Z,20.99
2023-06-09T22:35:06.663Z,21.60
2023-06-09T22:38:08.667Z,21.06
2023-06-09T22:41:03.474Z,21.71
2023-06-09T22:44:05.488Z,21.13
2023-06-09T22:47:06.468Z,21.75
2023-06-09T22:50:17.453Z,21.67
2023-06-09T22:53:15.027Z,21.40
2023-06-09T22:56:08.467Z,21.30
2023-06-09T22:59:10.468Z,21.36
2023-06-09T23:02:14.101Z,21.66
2023-06-09T23:05:18.476Z,21.70
2023-06-09T23:08:23.522Z,21.14
2023-06-09T23:11:25.788Z,21.31
2023-06-09T23:14:27.484Z,21.04
2023-06-09T23:17:28.541Z,21.38
2023-06-09T23:20:29.463Z,21.13
2023-06-09T23:23:30.494Z,21.34
2023-06-09T23:26:31.599Z,21.41
2023-06-09T23:29:32.486Z,21.21
2023-06-09T23:32:33.877Z,21.63
2023-06-09T23:35:34.437Z,20.71
2023-06-09T23:38:35.507Z,21.44
2023-06-09T23:41:37.431Z,21.16
2023-06-09T23:44:38.488Z,21.36
2023-06-09T23:47:39.461Z,21.67
2023-06-09T23:50:40.485Z,21.63
2023-06-09T23:53:42.499Z,21.28
2023-06-09T23:56:43.457Z,21.38
2023-06-09T23:59:44.505Z,21.87
